Time;durP1;ratioP1;P1;durP2;ratioP2;P2;SDS_P1;SDS_P2;PMS_P1;PMS_P2;Temp;Humidity;BMP_temperature;BMP_pressure;BME280_temperature;BME280_humidity;BME280_pressure;Samples;Min_cycle;Max_cycle;Signal;HPM_P1;HPM_P2
2022/11/12 00:00:32;;;;;;;38.15;21.40;;;;;;;2.53;100.00;102970.00;2080848;28;20054;-66
2022/11/12 00:01:52;;;;;;;31.85;19.23;;;;;;;2.55;100.00;102970.06;2078712;28;20058;-66
2022/11/12 00:03:14;;;;;;;34.80;20.23;;;;;;;2.56;100.00;102961.28;2079957;28;20050;-66
2022/11/12 00:04:35;;;;;;;32.85;19.95;;;;;;;2.53;100.00;102966.44;2081050;28;20082;-66
2022/11/12 00:05:55;;;;;;;;;;;;;;;2.51;100.00;102970.78;2079937;28;20046;-66
2022/11/12 00:07:15;;;;;;;41.75;22.80;;;;;;;2.57;100.00;102963.13;2079498;28;20833;-65
2022/11/12 00:08:36;;;;;;;34.70;21.27;;;;;;;2.56;100.00;102964.84;2079528;28;20050;-64
2022/11/12 00:09:58;;;;;;;32.85;19.92;;;;;;;2.52;100.00;102969.94;2080319;28;20530;-66
2022/11/12 00:11:18;;;;;;;33.15;19.02;;;;;;;2.44;100.00;102967.88;2079623;28;20085;-65
2022/11/12 00:12:39;;;;;;;31.98;19.42;;;;;;;2.38;100.00;102969.34;2074581;28;20046;-66
2022/11/12 00:13:59;;;;;;;;;;;;;;;2.32;100.00;102961.16;2080265;28;20053;-66
2022/11/12 00:15:20;;;;;;;31.73;17.92;;;;;;;2.31;100.00;102959.34;2079516;28;19976;-66
2022/11/12 00:16:40;;;;;;;39.03;20.17;;;;;;;2.26;100.00;102965.34;2079206;28;20439;-66
2022/11/12 00:18:00;;;;;;;36.88;20.20;;;;;;;2.23;100.00;102965.19;2079514;28;20192;-66
2022/11/12 00:19:23;;;;;;;37.60;18.48;;;;;;;2.24;100.00;102966.06;2079596;28;20046;-66
2022/11/12 00:20:46;;;;;;;32.58;19.48;;;;;;;2.22;100.00;102966.00;2079838;28;20080;-66
2022/11/12 00:22:06;;;;;;;30.23;17.63;;;;;;;2.22;100.00;102966.00;2079725;28;20781;-66
2022/11/12 00:23:29;;;;;;;30.17;18.75;;;;;;;2.19;100.00;102959.69;2078953;28;20523;-67
2022/11/12 00:24:50;;;;;;;31.73;18.80;;;;;;;2.14;100.00;102962.16;2079993;28;20046;-66
2022/11/12 00:26:10;;;;;;;32.67;19.02;;;;;;;2.10;100.00;102966.38;2080874;28;20045;-66
2022/11/12 00:27:32;;;;;;;33.72;20.13;;;;;;;2.08;100.00;102976.00;2079664;28;20050;-66
2022/11/12 00:28:52;;;;;;;32.28;19.50;;;;;;;2.07;100.00;102976.81;2080299;28;20104;-66
2022/11/12 00:30:12;;;;;;;28.67;19.20;;;;;;;2.06;100.00;102976.72;2079229;28;20034;-67
2022/11/12 00:31:33;;;;;;;31.90;19.60;;;;;;;2.05;100.00;102977.59;2080520;28;20180;-67
2022/11/12 00:32:53;;;;;;;36.25;20.35;;;;;;;2.02;100.00;102975.69;2080223;28;20061;-66
2022/11/12 00:34:14;;;;;;;31.10;18.20;;;;;;;2.02;100.00;102978.34;2080747;28;20054;-66
2022/11/12 00:35:34;;;;;;;;;;;;;;;1.99;100.00;102974.66;2079078;28;20070;-66
2022/11/12 00:36:54;;;;;;;31.92;18.83;;;;;;;1.98;100.00;102981.69;2080357;28;19921;-67
2022/11/12 00:38:15;;;;;;;;;;;;;;;1.93;100.00;102983.22;2080187;28;20053;-67
2022/11/12 00:39:38;;;;;;;29.17;15.75;;;;;;;1.91;100.00;102980.50;2080248;28;19925;-67
2022/11/12 00:40:59;;;;;;;34.03;19.08;;;;;;;1.95;100.00;102976.25;2079891;28;20176;-66
2022/11/12 00:42:19;;;;;;;32.13;19.27;;;;;;;1.96;100.00;102983.34;2079998;28;20073;-66
2022/11/12 00:43:40;;;;;;;31.13;17.88;;;;;;;1.96;100.00;102979.81;2080118;28;20922;-66
2022/11/12 00:45:00;;;;;;;33.88;19.63;;;;;;;2.00;100.00;102981.75;2080763;28;20050;-66
2022/11/12 00:46:20;;;;;;;41.28;22.00;;;;;;;2.08;100.00;102980.34;2080032;28;20121;-66
2022/11/12 00:47:41;;;;;;;40.33;22.60;;;;;;;2.21;100.00;102977.44;2080346;28;20034;-67
2022/11/12 00:49:03;;;;;;;38.47;21.25;;;;;;;2.18;100.00;102969.34;2080487;28;20046;-67
2022/11/12 00:50:24;;;;;;;34.35;19.92;;;;;;;2.22;100.00;102973.94;2079825;28;20054;-66
2022/11/12 00:51:44;;;;;;;32.63;19.38;;;;;;;2.23;100.00;102986.31;2080027;28;20227;-67
2022/11/12 00:53:07;;;;;;;35.30;22.23;;;;;;;2.21;100.00;102973.91;2079819;28;20038;-67
2022/11/12 00:54:27;;;;;;;36.53;21.27;;;;;;;2.21;100.00;102974.78;2080368;28;20046;-67
2022/11/12 00:55:49;;;;;;;38.42;20.83;;;;;;;2.22;100.00;102976.59;2071716;28;20947;-67
2022/11/12 00:57:09;;;;;;;39.05;20.38;;;;;;;2.17;100.00;102974.56;2077168;28;20168;-67
2022/11/12 00:58:33;;;;;;;36.13;19.05;;;;;;;2.12;100.00;102978.75;2080476;28;20054;-67
2022/11/12 00:59:53;;;;;;;34.60;20.48;;;;;;;2.10;100.00;102986.63;2079189;28;20156;-67
2022/11/12 01:01:14;;;;;;;34.10;20.85;;;;;;;2.08;100.00;102969.78;2079350;28;20053;-67
2022/11/12 01:02:35;;;;;;;31.88;19.30;;;;;;;2.08;100.00;102972.41;2079481;28;20042;-67
2022/11/12 01:04:01;;;;;;;31.15;20.25;;;;;;;2.06;100.00;102979.38;2079644;28;20122;-67
2022/11/12 01:05:21;;;;;;;30.08;17.88;;;;;;;2.04;100.00;102983.69;2079920;28;20896;-67
2022/11/12 01:06:42;;;;;;;29.15;17.00;;;;;;;2.02;100.00;102982.72;2079510;28;20034;-68
2022/11/12 01:08:02;;;;;;;33.58;20.20;;;;;;;2.01;100.00;102979.19;2079288;28;20166;-67
2022/11/12 01:09:22;;;;;;;36.60;19.80;;;;;;;2.00;100.00;102982.66;2079671;28;20863;-67
2022/11/12 01:10:45;;;;;;;29.60;17.98;;;;;;;1.96;100.00;102988.63;2079466;28;20050;-67
2022/11/12 01:12:05;;;;;;;32.22;18.92;;;;;;;1.94;100.00;102992.03;2079479;28;20050;-67
2022/11/12 01:13:25;;;;;;;34.38;18.63;;;;;;;1.92;100.00;102991.97;2080692;28;20042;-67
2022/11/12 01:14:46;;;;;;;36.35;20.15;;;;;;;1.94;100.00;102976.19;2080019;28;20042;-67
2022/11/12 01:16:15;;;;;;;32.20;19.73;;;;;;;1.93;100.00;102974.38;2080248;28;20054;-67
2022/11/12 01:17:36;;;;;;;31.25;17.77;;;;;;;1.88;100.00;102967.16;2079273;28;20050;-67
2022/11/12 01:19:00;;;;;;;32.97;18.75;;;;;;;1.84;100.00;102975.75;2080024;28;20057;-67
2022/11/12 01:20:20;;;;;;;34.53;19.02;;;;;;;1.83;100.00;102980.97;2080080;28;20046;-68
2022/11/12 01:21:44;;;;;;;;;;;;;;;1.81;100.00;102978.28;2080749;28;20176;-67
2022/11/12 01:23:05;;;;;;;29.25;16.40;;;;;;;1.82;100.00;102968.63;2079105;28;20067;-67
2022/11/12 01:24:26;;;;;;;34.03;20.73;;;;;;;1.88;100.00;102968.88;2079957;28;20046;-68
2022/11/12 01:25:46;;;;;;;32.90;19.25;;;;;;;1.86;100.00;102970.56;2079158;28;20050;-68
2022/11/12 01:27:06;;;;;;;35.70;20.83;;;;;;;1.84;100.00;102978.41;2079466;28;20959;-68
2022/11/12 01:28:27;;;;;;;34.30;18.35;;;;;;;1.84;100.00;102977.50;2079362;28;20070;-67
2022/11/12 01:29:48;;;;;;;31.55;19.35;;;;;;;1.79;100.00;102979.91;2076529;28;20038;-67
2022/11/12 01:31:14;;;;;;;33.85;18.98;;;;;;;1.79;100.00;102972.00;2079686;28;20120;-67
2022/11/12 01:32:36;;;;;;;37.20;22.00;;;;;;;1.84;100.00;102965.19;2080098;28;20826;-67
2022/11/12 01:34:00;;;;;;;31.08;18.50;;;;;;;1.86;100.00;102968.81;2079471;28;20061;-68
2022/11/12 01:35:20;;;;;;;37.72;19.83;;;;;;;1.80;100.00;102965.91;2080148;28;20906;-67
2022/11/12 01:36:42;;;;;;;39.85;21.60;;;;;;;1.78;100.00;102969.31;2080344;28;20058;-67
2022/11/12 01:38:02;;;;;;;34.70;19.90;;;;;;;1.80;100.00;102972.94;2079806;28;20054;-68
2022/11/12 01:39:23;;;;;;;37.30;20.40;;;;;;;1.78;100.00;102979.88;2078528;28;20041;-67
2022/11/12 01:40:43;;;;;;;37.38;21.98;;;;;;;1.76;100.00;102977.16;2079823;28;20042;-68
2022/11/12 01:42:04;;;;;;;33.40;19.88;;;;;;;1.75;100.00;102975.34;2079503;28;20168;-68
2022/11/12 01:43:24;;;;;;;28.58;17.27;;;;;;;1.75;100.00;102966.53;2079795;28;20045;-68
2022/11/12 01:44:45;;;;;;;38.70;21.70;;;;;;;1.73;100.00;102960.28;2079517;28;20192;-68
2022/11/12 01:46:19;;;;;;;32.70;19.40;;;;;;;1.71;100.00;102966.38;2079889;28;20078;-68
2022/11/12 01:47:43;;;;;;;31.58;18.10;;;;;;;1.68;100.00;102965.34;2079337;28;20053;-68
2022/11/12 01:49:11;;;;;;;37.72;19.70;;;;;;;1.64;100.00;102972.22;2079684;28;20880;-68
2022/11/12 01:50:34;;;;;;;28.23;17.48;;;;;;;1.62;100.00;102976.50;2078306;28;20050;-68
2022/11/12 01:52:01;;;;;;;32.58;18.92;;;;;;;1.62;100.00;102975.63;2076953;28;20994;-68
2022/11/12 01:53:25;;;;;;;33.75;19.13;;;;;;;1.66;100.00;102972.28;2077620;28;20177;-68
2022/11/12 01:54:51;;;;;;;30.65;17.48;;;;;;;1.62;100.00;102965.06;2077993;28;20891;-68
2022/11/12 01:56:13;;;;;;;33.22;17.95;;;;;;;1.61;100.00;102966.78;2076510;28;20050;-65
2022/11/12 01:57:41;;;;;;;32.92;19.83;;;;;;;1.64;100.00;102963.38;2080168;28;20046;-66
2022/11/12 01:59:20;;;;;;;41.17;22.23;;;;;;;1.74;100.00;102965.59;2079970;28;20042;-67
2022/11/12 02:00:41;;;;;;;32.63;19.35;;;;;;;1.78;100.00;102972.84;2078694;28;20081;-66
2022/11/12 02:02:04;;;;;;;34.78;20.35;;;;;;;1.76;100.00;102971.88;2079506;28;20046;-67
2022/11/12 02:03:24;;;;;;;33.80;18.70;;;;;;;1.69;100.00;102973.31;2076850;28;20781;-67
2022/11/12 02:04:45;;;;;;;35.20;20.90;;;;;;;1.64;100.00;102974.84;2080776;28;20049;-67
2022/11/12 02:06:12;;;;;;;31.17;18.48;;;;;;;1.58;100.00;102973.66;2080993;28;20088;-67
2022/11/12 02:07:35;;;;;;;32.47;18.35;;;;;;;1.52;100.00;102972.53;2079002;28;20066;-67
2022/11/12 02:08:56;;;;;;;30.10;18.48;;;;;;;1.44;100.00;102962.47;2081087;28;20042;-67
2022/11/12 02:10:17;;;;;;;32.15;18.23;;;;;;;1.40;100.00;102956.13;2081374;28;20089;-67
2022/11/12 02:11:37;;;;;;;30.95;15.98;;;;;;;1.41;100.00;102955.28;2080807;28;20046;-67
2022/11/12 02:14:36;;;;;;;28.45;16.98;;;;;;;1.34;100.00;102963.75;2080590;28;20050;-67
2022/11/12 02:15:57;;;;;;;35.63;19.75;;;;;;;1.31;100.00;102961.88;2080843;28;20037;-67
2022/11/12 02:17:17;;;;;;;39.42;22.33;;;;;;;1.48;100.00;102964.41;2080670;28;20863;-67
2022/11/12 02:18:37;;;;;;;35.78;20.67;;;;;;;1.41;100.00;102957.91;2076803;28;20046;-67
2022/11/12 02:19:59;;;;;;;38.22;19.35;;;;;;;1.40;100.00;102961.41;2080561;28;20176;-67
2022/11/12 02:21:25;;;;;;;37.50;21.23;;;;;;;1.52;100.00;102955.78;2080822;28;20892;-67
2022/11/12 02:22:45;;;;;;;39.50;22.13;;;;;;;1.63;100.00;102949.25;2081161;28;20050;-68
2022/11/12 02:24:11;;;;;;;39.22;20.95;;;;;;;1.66;100.00;102951.16;2080911;28;20191;-67
2022/11/12 02:25:32;;;;;;;39.00;21.30;;;;;;;1.63;100.00;102964.22;2081403;28;20926;-67
2022/11/12 02:26:54;;;;;;;41.30;21.63;;;;;;;1.58;100.00;102956.09;2081634;28;20089;-68
2022/11/12 02:28:16;;;;;;;36.63;20.17;;;;;;;1.55;100.00;102955.94;2080339;28;20034;-67
2022/11/12 02:29:46;;;;;;;36.95;20.20;;;;;;;1.53;100.00;102958.50;2080381;28;20042;-67
2022/11/12 02:31:06;;;;;;;37.83;19.35;;;;;;;1.53;100.00;102958.50;2080762;28;20196;-67
2022/11/12 02:32:26;;;;;;;41.95;21.63;;;;;;;1.56;100.00;102955.09;2080471;28;20054;-68
2022/11/12 02:33:46;;;;;;;35.47;18.50;;;;;;;1.53;100.00;102961.16;2080792;28;20381;-67
2022/11/12 02:35:07;;;;;;;38.20;20.85;;;;;;;1.51;100.00;102967.19;2081568;28;20042;-67
2022/11/12 02:36:28;;;;;;;34.03;19.65;;;;;;;1.48;100.00;102965.31;2081144;28;20046;-67
2022/11/12 02:37:48;;;;;;;38.92;21.27;;;;;;;1.42;100.00;102969.38;2081238;28;20054;-67
2022/11/12 02:39:08;;;;;;;40.80;22.05;;;;;;;1.38;100.00;102970.06;2080064;28;20937;-67
2022/11/12 02:40:28;;;;;;;34.72;18.05;;;;;;;1.36;100.00;102971.75;2080747;28;20054;-68
2022/11/12 02:41:49;;;;;;;42.15;22.00;;;;;;;1.39;100.00;102963.97;2080726;28;20050;-67
2022/11/12 02:43:09;;;;;;;;;;;;;;;1.35;100.00;102970.84;2081667;28;20050;-67
2022/11/12 02:44:30;;;;;;;32.42;17.67;;;;;;;1.30;100.00;102969.72;2080260;28;19930;-67
2022/11/12 02:45:53;;;;;;;35.42;19.25;;;;;;;1.26;100.00;102965.13;2080680;28;20129;-68
2022/11/12 02:47:13;;;;;;;31.20;17.48;;;;;;;1.22;100.00;102968.44;2080309;28;20885;-67
2022/11/12 02:48:34;;;;;;;34.50;18.55;;;;;;;1.14;100.00;102974.25;2080488;28;21057;-67
2022/11/12 02:49:55;;;;;;;33.35;19.40;;;;;;;1.11;100.00;102967.91;2080247;28;20082;-66
2022/11/12 02:51:15;;;;;;;30.88;18.83;;;;;;;1.05;100.00;102965.88;2080594;28;20145;-67
2022/11/12 02:52:36;;;;;;;;;;;;;;;1.02;100.00;102967.47;2081406;28;20927;-67
2022/11/12 02:53:56;;;;;;;30.98;16.35;;;;;;;1.00;100.00;102975.31;2081067;28;19921;-67
2022/11/12 02:55:17;;;;;;;;;;;;;;;0.99;100.00;102969.94;2081323;28;20046;-67
2022/11/12 02:56:37;;;;;;;34.38;17.33;;;;;;;0.99;100.00;102970.88;2080670;28;20897;-68
2022/11/12 02:57:58;;;;;;;29.25;14.55;;;;;;;0.98;100.00;102966.41;2081053;28;20831;-67
2022/11/12 02:59:19;;;;;;;33.00;18.55;;;;;;;1.00;100.00;102966.50;2080873;28;20168;-67
2022/11/12 03:00:39;;;;;;;33.85;18.85;;;;;;;1.00;100.00;102966.50;2079771;28;20050;-68
2022/11/12 03:01:59;;;;;;;42.03;21.20;;;;;;;0.99;100.00;102967.31;2080642;28;20050;-67
2022/11/12 03:03:20;;;;;;;35.78;20.38;;;;;;;0.99;100.00;102968.22;2080426;28;20038;-68
2022/11/12 03:04:40;;;;;;;38.58;20.85;;;;;;;1.00;100.00;102964.75;2079707;28;20058;-68
2022/11/12 03:06:05;;;;;;;35.03;19.63;;;;;;;1.03;100.00;102961.38;2072616;28;20050;-68
2022/11/12 03:07:25;;;;;;;35.53;20.40;;;;;;;1.00;100.00;102959.47;2072121;28;20168;-68
2022/11/12 03:08:46;;;;;;;35.53;20.20;;;;;;;0.98;100.00;102965.50;2072133;28;20081;-68
2022/11/12 03:10:07;;;;;;;32.00;17.95;;;;;;;0.96;100.00;102957.53;2073006;28;20176;-68
2022/11/12 03:11:27;;;;;;;35.83;18.33;;;;;;;0.93;100.00;102966.19;2071669;28;20801;-68
2022/11/12 03:12:47;;;;;;;32.83;18.92;;;;;;;0.86;100.00;102952.63;2072690;28;20927;-68
2022/11/12 03:14:08;;;;;;;36.17;18.48;;;;;;;0.83;100.00;102960.41;2072404;28;20181;-68
2022/11/12 03:15:29;;;;;;;33.28;18.48;;;;;;;0.82;100.00;102962.09;2072806;28;20109;-68
2022/11/12 03:16:52;;;;;;;38.13;19.55;;;;;;;0.84;100.00;102964.81;2071993;28;20888;-68
2022/11/12 03:18:12;;;;;;;38.10;20.13;;;;;;;0.87;100.00;102962.34;2073142;28;20054;-68
2022/11/12 03:19:32;;;;;;;35.70;20.60;;;;;;;0.88;100.00;102972.06;2071913;28;20054;-68
2022/11/12 03:20:54;;;;;;;36.95;21.27;;;;;;;0.90;100.00;102966.03;2072266;28;20097;-68
2022/11/12 03:22:15;;;;;;;43.80;22.63;;;;;;;0.91;100.00;102967.84;2072604;28;20899;-68
2022/11/12 03:23:35;;;;;;;41.78;21.33;;;;;;;0.92;100.00;102968.75;2072343;28;20042;-68
2022/11/12 03:24:55;;;;;;;38.70;21.10;;;;;;;0.98;100.00;102966.41;2072316;28;20949;-68
2022/11/12 03:26:15;;;;;;;39.30;20.50;;;;;;;0.95;100.00;102960.97;2072665;28;20821;-68
2022/11/12 03:27:36;;;;;;;32.60;18.23;;;;;;;0.92;100.00;102971.41;2079827;28;21046;-68
2022/11/12 03:28:56;;;;;;;35.53;19.83;;;;;;;0.89;100.00;102972.13;2079233;28;20089;-68
2022/11/12 03:30:21;;;;;;;37.92;21.48;;;;;;;0.93;100.00;102974.13;2079565;28;20050;-68
2022/11/12 03:31:41;;;;;;;38.13;19.83;;;;;;;0.92;100.00;102980.19;2080421;28;20070;-67
2022/11/12 03:33:06;;;;;;;36.33;20.33;;;;;;;0.89;100.00;102973.88;2080761;28;20042;-68
2022/11/12 03:34:26;;;;;;;43.03;22.52;;;;;;;0.90;100.00;102971.31;2079940;28;20882;-68
2022/11/12 03:35:46;;;;;;;38.28;21.60;;;;;;;0.91;100.00;102972.22;2077108;28;20939;-68
2022/11/12 03:37:08;;;;;;;42.97;21.85;;;;;;;0.87;100.00;102970.25;2080242;28;20773;-69
2022/11/12 03:38:28;;;;;;;34.53;19.10;;;;;;;0.87;100.00;102972.91;2079693;28;21259;-69
2022/11/12 03:39:51;;;;;;;36.83;20.38;;;;;;;0.82;100.00;102982.31;2081321;28;20966;-68
2022/11/12 03:41:11;;;;;;;39.60;22.08;;;;;;;0.84;100.00;102980.66;2080640;28;20046;-68
2022/11/12 03:42:32;;;;;;;;;;;;;;;0.79;100.00;102977.78;2079932;28;20046;-68
2022/11/12 03:43:52;;;;;;;42.53;19.77;;;;;;;0.84;100.00;102972.72;2081342;28;19926;-69
2022/11/12 03:45:14;;;;;;;38.20;19.80;;;;;;;0.83;100.00;102969.19;2080984;28;20050;-69
2022/11/12 03:46:34;;;;;;;37.95;19.23;;;;;;;0.81;100.00;102969.94;2079832;28;20073;-69
2022/11/12 03:47:57;;;;;;;36.72;20.02;;;;;;;0.75;100.00;102962.63;2080793;28;20046;-68
2022/11/12 03:49:17;;;;;;;34.83;18.67;;;;;;;0.73;100.00;102966.94;2079814;28;20978;-68
2022/11/12 03:50:37;;;;;;;42.20;20.00;;;;;;;0.68;100.00;102963.16;2080118;28;20038;-68
2022/11/12 03:51:58;;;;;;;42.67;22.92;;;;;;;0.65;100.00;102970.94;2080732;28;21005;-69
2022/11/12 03:53:18;;;;;;;;;;;;;;;0.71;100.00;102976.50;2081069;28;20923;-68
2022/11/12 03:54:38;;;;;;;37.90;19.60;;;;;;;0.69;100.00;102976.41;2080572;28;20764;-68
2022/11/12 03:55:58;;;;;;;44.15;19.98;;;;;;;0.72;100.00;102966.03;2080373;28;20167;-68
2022/11/12 03:57:19;;;;;;;36.80;21.23;;;;;;;0.69;100.00;102973.78;2085627;28;20358;-68
2022/11/12 03:58:39;;;;;;;46.80;24.15;;;;;;;0.71;100.00;102958.94;2088875;28;20168;-69
2022/11/12 04:00:00;;;;;;;;;;;;;;;0.67;100.00;102970.16;2088379;28;20041;-68
2022/11/12 04:01:20;;;;;;;36.65;17.88;;;;;;;0.62;100.00;102961.13;2088622;28;19929;-68
2022/11/12 04:02:40;;;;;;;40.35;20.25;;;;;;;0.64;100.00;102962.09;2088605;28;20041;-68
2022/11/12 04:04:01;;;;;;;43.08;20.85;;;;;;;0.64;100.00;102956.81;2088238;28;20049;-68
2022/11/12 04:08:41;;;;;;;38.00;20.17;;;;;;;0.61;100.00;102964.59;2089123;28;20045;-68
2022/11/12 04:10:01;;;;;;;43.40;22.83;;;;;;;0.64;100.00;102967.34;2088410;28;20124;-68
2022/11/12 04:11:22;;;;;;;43.55;23.63;;;;;;;0.61;100.00;102967.22;2089065;28;20807;-68
2022/11/12 04:14:21;;;;;;;41.53;21.65;;;;;;;0.61;100.00;102972.50;2088354;28;20049;-68
2022/11/12 04:15:42;;;;;;;;;;;;;;;0.60;100.00;102965.41;2085943;28;20042;-68
2022/11/12 04:22:09;;;;;;;33.88;18.00;;;;;;;0.48;100.00;102976.22;2079639;28;20777;-68
2022/11/12 04:23:29;;;;;;;35.70;18.48;;;;;;;0.44;100.00;102976.00;2079985;28;20050;-69
2022/11/12 04:26:31;;;;;;;37.33;20.13;;;;;;;0.34;100.00;102978.16;2078715;28;20058;-68
2022/11/12 04:27:51;;;;;;;38.72;20.45;;;;;;;0.33;100.00;102978.06;2079304;28;20093;-68
2022/11/12 04:30:56;;;;;;;43.75;20.90;;;;;;;0.34;100.00;102970.25;2079834;28;20712;-68
2022/11/12 04:32:17;;;;;;;41.40;22.33;;;;;;;0.34;100.00;102962.34;2079836;28;20224;-68
2022/11/12 04:33:37;;;;;;;38.28;21.55;;;;;;;0.33;100.00;102970.19;2079937;28;20923;-69
2022/11/12 04:34:58;;;;;;;44.65;22.63;;;;;;;0.32;100.00;102974.56;2080084;28;20034;-68
2022/11/12 04:36:18;;;;;;;41.60;19.90;;;;;;;0.32;100.00;102977.19;2079810;28;20042;-68
2022/11/12 04:37:44;;;;;;;40.22;20.05;;;;;;;0.28;100.00;102980.47;2079866;28;20050;-68
2022/11/12 04:39:04;;;;;;;43.65;20.67;;;;;;;0.27;100.00;102986.56;2079124;28;20081;-68
2022/11/12 04:45:44;;;;;;;37.30;19.52;;;;;;;0.30;100.00;102976.16;2038740;29;20331;-68
2022/11/12 04:47:04;;;;;;;45.67;21.05;;;;;;;0.28;100.00;102969.91;2030343;29;20748;-68
2022/11/12 04:48:24;;;;;;;43.33;19.27;;;;;;;0.27;100.00;102965.50;2078825;28;20181;-69
2022/11/12 04:49:45;;;;;;;38.20;21.10;;;;;;;0.26;100.00;102974.22;2078910;28;20104;-68
2022/11/12 04:52:03;;;;;;;40.30;20.70;;;;;;;0.32;100.00;102982.44;2079636;28;20070;-68
2022/11/12 04:52:46;;;;;;;43.25;20.88;;;;;;;0.27;100.00;102978.66;2079723;28;20050;-68
2022/11/12 04:54:06;;;;;;;;;;;;;;;0.25;100.00;102977.69;2080552;28;20172;-68
2022/11/12 04:55:26;;;;;;;42.08;19.80;;;;;;;0.24;100.00;102970.59;2079916;28;19972;-68
2022/11/12 04:56:47;;;;;;;36.30;18.42;;;;;;;0.24;100.00;102973.22;2072454;28;20931;-68
2022/11/12 04:58:08;;;;;;;38.60;20.42;;;;;;;0.20;100.00;102976.53;2072151;28;20050;-68
2022/11/12 04:59:28;;;;;;;43.00;20.50;;;;;;;0.18;100.00;102991.34;2072242;28;20046;-68
2022/11/12 05:00:49;;;;;;;42.40;21.58;;;;;;;0.16;100.00;102987.72;2071447;28;20062;-68
2022/11/12 05:02:09;;;;;;;36.58;19.60;;;;;;;0.17;100.00;102989.53;2071966;28;20047;-68
2022/11/12 05:03:30;;;;;;;39.22;19.77;;;;;;;0.18;100.00;102980.81;2072339;28;20050;-68
2022/11/12 05:04:50;;;;;;;46.58;20.95;;;;;;;0.18;100.00;102980.81;2071778;28;20093;-68
2022/11/12 05:07:50;;;;;;;44.88;21.63;;;;;;;0.13;100.00;102977.03;2070965;28;20046;-66
2022/11/12 05:09:11;;;;;;;36.53;18.23;;;;;;;0.11;100.00;102978.69;2071210;28;20039;-68
2022/11/12 05:10:31;;;;;;;37.92;17.63;;;;;;;0.09;100.00;102980.31;2072097;28;20054;-68
2022/11/12 05:11:56;;;;;;;35.97;18.38;;;;;;;0.06;100.00;102980.16;2071765;28;20051;-68
2022/11/12 05:13:16;;;;;;;31.90;16.80;;;;;;;0.06;100.00;102977.53;2071535;28;20039;-68
2022/11/12 05:14:37;;;;;;;38.90;19.70;;;;;;;0.01;100.00;102976.38;2070999;28;20050;-68
2022/11/12 05:15:57;;;;;;;41.95;20.23;;;;;;;-0.02;100.00;102977.09;2071940;28;20050;-68
2022/11/12 05:17:17;;;;;;;32.28;17.30;;;;;;;-0.01;100.00;102984.19;2071492;28;20038;-67
2022/11/12 05:18:38;;;;;;;34.40;17.73;;;;;;;-0.03;100.00;102978.84;2071801;28;20055;-68
2022/11/12 05:19:58;;;;;;;35.63;19.48;;;;;;;-0.04;100.00;102984.03;2071434;28;20840;-68
2022/11/12 05:23:02;;;;;;;33.42;17.08;;;;;;;-0.05;100.00;102991.03;2071121;28;20121;-68
2022/11/12 05:24:27;;;;;;;35.42;17.75;;;;;;;-0.03;100.00;102994.66;2071557;28;20172;-67
2022/11/12 05:26:00;;;;;;;40.00;20.75;;;;;;;0.07;100.00;102993.44;2074065;28;20088;-68
2022/11/12 05:27:21;;;;;;;45.95;21.85;;;;;;;0.15;100.00;102981.53;2079017;28;20042;-68
2022/11/12 05:28:41;;;;;;;40.88;19.70;;;;;;;0.17;100.00;102981.63;2079997;28;20104;-68
2022/11/12 05:30:03;;;;;;;42.25;21.17;;;;;;;0.14;100.00;102981.47;2079889;28;20093;-68
2022/11/12 05:31:23;;;;;;;35.33;19.10;;;;;;;0.09;100.00;102975.03;2079155;28;20809;-68
2022/11/12 05:32:43;;;;;;;41.17;20.10;;;;;;;0.11;100.00;102976.06;2078642;28;20050;-68
2022/11/12 05:34:03;;;;;;;37.58;19.00;;;;;;;0.09;100.00;102978.59;2079857;28;20050;-67
2022/11/12 05:35:23;;;;;;;39.38;19.55;;;;;;;0.00;100.00;102975.50;2079872;28;20056;-68
2022/11/12 05:36:44;;;;;;;35.20;19.67;;;;;;;-0.02;100.00;102979.75;2080045;28;20042;-68
2022/11/12 05:38:04;;;;;;;39.72;21.85;;;;;;;-0.04;100.00;102981.38;2080689;28;20050;-68
2022/11/12 05:39:25;;;;;;;38.90;20.23;;;;;;;-0.05;100.00;102983.13;2081815;28;20050;-68
2022/11/12 05:40:45;;;;;;;41.17;20.80;;;;;;;-0.04;100.00;102982.28;2080758;28;21030;-66
2022/11/12 05:42:08;;;;;;;39.83;19.63;;;;;;;-0.06;100.00;102969.88;2080330;28;20049;-68
2022/11/12 05:43:33;;;;;;;39.50;20.35;;;;;;;-0.05;100.00;102966.44;2080422;28;20043;-68
2022/11/12 05:44:53;;;;;;;37.58;18.85;;;;;;;-0.06;100.00;102975.13;2081065;28;20073;-68
2022/11/12 05:46:14;;;;;;;43.05;21.95;;;;;;;-0.10;100.00;102984.59;2081800;28;20045;-68
2022/11/12 05:47:34;;;;;;;40.95;20.70;;;;;;;-0.08;100.00;102985.59;2081460;28;20050;-68
2022/11/12 05:48:54;;;;;;;;;;;;;;;-0.06;100.00;102978.66;2081687;28;20073;-68
2022/11/12 05:50:15;;;;;;;39.63;20.40;;;;;;;-0.06;100.00;102983.03;2081364;28;19918;-68
2022/11/12 05:51:35;;;;;;;47.97;22.25;;;;;;;-0.08;100.00;102979.44;2081583;28;20061;-68
2022/11/12 05:52:58;;;;;;;40.00;21.10;;;;;;;-0.06;100.00;102973.41;2081664;28;20050;-68
2022/11/12 05:54:18;;;;;;;39.70;18.45;;;;;;;-0.05;100.00;102982.22;2081288;28;20060;-68
2022/11/12 05:55:41;;;;;;;46.05;19.80;;;;;;;-0.06;100.00;102986.56;2081158;28;20888;-68
2022/11/12 05:57:02;;;;;;;47.63;20.55;;;;;;;-0.11;100.00;102987.16;2115511;22;20041;-82
2022/11/12 05:58:23;;;;;;;49.53;24.67;;;;;;;0.55;100.00;102991.50;2089573;28;20053;-80
2022/11/12 05:59:43;;;;;;;56.60;26.48;;;;;;;0.33;100.00;102991.25;2089137;28;20996;-81
2022/11/12 06:01:04;;;;;;;59.33;26.70;;;;;;;0.35;100.00;102987.84;2089358;28;20168;-80
2022/11/12 06:02:24;;;;;;;59.00;26.27;;;;;;;0.36;100.00;102980.88;2089489;28;20057;-80
2022/11/12 06:03:44;;;;;;;58.28;27.48;;;;;;;0.30;100.00;102970.91;2089655;28;20042;-80
2022/11/12 06:05:05;;;;;;;55.50;25.98;;;;;;;0.27;100.00;102976.03;2089253;28;20777;-80
2022/11/12 06:06:25;;;;;;;50.58;24.75;;;;;;;0.22;100.00;102972.25;2089436;28;20092;-80
2022/11/12 06:07:46;;;;;;;49.30;23.80;;;;;;;0.18;100.00;102975.56;2089310;28;20045;-80
2022/11/12 06:09:08;;;;;;;47.90;22.52;;;;;;;0.14;100.00;102969.22;2088778;28;20045;-79
2022/11/12 06:10:29;;;;;;;47.60;19.92;;;;;;;0.08;100.00;102975.88;2088231;28;20050;-82
2022/11/12 06:11:51;;;;;;;41.88;21.92;;;;;;;0.02;100.00;102972.91;2089353;28;20045;-81
2022/11/12 06:13:12;;;;;;;48.10;23.55;;;;;;;0.02;100.00;102972.91;2088570;28;20172;-81
2022/11/12 06:14:34;;;;;;;48.90;23.40;;;;;;;0.02;100.00;102968.56;2089580;28;20046;-80
2022/11/12 06:15:57;;;;;;;46.83;21.83;;;;;;;0.01;100.00;102968.47;2081131;28;20050;-80
2022/11/12 06:17:20;;;;;;;47.53;22.42;;;;;;;-0.03;100.00;102965.69;2080591;28;20042;-80
2022/11/12 06:18:45;;;;;;;43.72;20.52;;;;;;;-0.08;100.00;102971.53;2080412;28;20046;-80
2022/11/12 06:20:05;;;;;;;47.70;23.02;;;;;;;-0.12;100.00;102973.09;2080940;28;20042;-81
2022/11/12 06:21:26;;;;;;;38.72;20.38;;;;;;;-0.15;100.00;102970.28;2081021;28;20054;-81
2022/11/12 06:22:49;;;;;;;39.58;18.60;;;;;;;-0.14;100.00;102981.72;2072298;28;20983;-79
2022/11/12 06:24:10;;;;;;;38.70;18.65;;;;;;;-0.17;100.00;102982.47;2078529;28;20038;-81
2022/11/12 06:25:32;;;;;;;46.90;21.90;;;;;;;-0.13;100.00;102999.34;2080926;28;20054;-80
2022/11/12 06:26:52;;;;;;;52.40;24.73;;;;;;;0.19;100.00;102995.78;2080804;28;20950;-80
2022/11/12 06:28:13;;;;;;;53.45;26.85;;;;;;;0.52;100.00;102999.28;2082691;28;20034;-80
2022/11/12 06:29:34;;;;;;;55.80;27.25;;;;;;;0.41;100.00;102996.91;2081234;28;20050;-80
2022/11/12 06:30:55;;;;;;;57.83;26.33;;;;;;;0.39;100.00;102991.56;2085271;28;20104;-80
2022/11/12 06:32:15;;;;;;;58.50;28.45;;;;;;;0.37;100.00;102987.94;2089321;28;20060;-80
2022/11/12 06:33:35;;;;;;;57.33;27.20;;;;;;;0.34;100.00;102986.06;2088918;28;20179;-80
2022/11/12 06:34:56;;;;;;;;;;;;;;;0.30;100.00;102983.19;2090269;28;20152;-80